createdAt,value
2019-05-06T00:01:14.954Z,101311.50
2019-05-06T00:03:44.920Z,101306.01
2019-05-06T00:06:14.597Z,101308.66
2019-05-06T00:08:44.315Z,101309.20
2019-05-06T00:11:14.329Z,101302.88
2019-05-06T00:13:44.536Z,101309.75
2019-05-06T00:16:14.564Z,101305.95
2019-05-06T00:18:44.904Z,101305.09
2019-05-06T00:21:14.860Z,101309.04
2019-05-06T00:23:48.634Z,101304.34
2019-05-06T00:26:29.540Z,101306.12
2019-05-06T00:29:04.454Z,101308.33
2019-05-06T00:31:34.663Z,101305.80
2019-05-06T00:34:04.476Z,101305.95
2019-05-06T00:36:34.560Z,101304.60
2019-05-06T00:39:07.341Z,101306.78
2019-05-06T00:41:36.950Z,101298.12
2019-05-06T00:44:06.516Z,101293.78
2019-05-06T00:46:36.019Z,101297.19
2019-05-06T00:49:06.009Z,101293.74
2019-05-06T00:51:35.542Z,101297.96
2019-05-06T00:54:18.710Z,101303.14
2019-05-06T00:56:48.250Z,101305.36
2019-05-06T00:59:18.042Z,101297.68
2019-05-06T01:01:47.572Z,101305.04
2019-05-06T01:04:17.411Z,101303.78
2019-05-06T01:06:47.001Z,101296.38
2019-05-06T01:09:23.396Z,101291.52
2019-05-06T01:11:54.657Z,101294.92
2019-05-06T01:14:25.823Z,101298.81
2019-05-06T01:16:55.374Z,101295.56
2019-05-06T01:19:24.905Z,101299.23
2019-05-06T01:21:55.677Z,101297.72
2019-05-06T01:24:25.175Z,101299.50
2019-05-06T01:26:54.733Z,101299.06
2019-05-06T01:29:24.280Z,101303.91
2019-05-06T01:31:54.517Z,101304.78
2019-05-06T01:34:24.629Z,101303.57
2019-05-06T01:36:54.736Z,101304.15
2019-05-06T01:39:29.929Z,101301.74
2019-05-06T01:42:01.099Z,101306.02
2019-05-06T01:44:30.905Z,101299.10
2019-05-06T01:47:00.484Z,101306.22
2019-05-06T01:49:31.040Z,101298.73
2019-05-06T01:52:00.567Z,101298.19
2019-05-06T01:54:30.121Z,101302.42
2019-05-06T01:56:59.662Z,101303.28
2019-05-06T01:59:29.300Z,101300.69
2019-05-06T02:02:01.209Z,101300.26
2019-05-06T02:04:30.424Z,101300.74
2019-05-06T02:06:59.964Z,101308.99
2019-05-06T02:09:29.508Z,101302.13
2019-05-06T02:11:59.151Z,101305.16
2019-05-06T02:14:28.679Z,101304.69
2019-05-06T02:16:58.259Z,101299.11
2019-05-06T02:19:27.945Z,101296.66
2019-05-06T02:22:01.540Z,101300.93
2019-05-06T02:24:33.782Z,101305.64
2019-05-06T02:27:04.474Z,101301.37
2019-05-06T02:29:50.894Z,101307.41
2019-05-06T02:32:36.861Z,101305.73
2019-05-06T02:35:14.997Z,101309.23
2019-05-06T02:37:46.648Z,101307.04
2019-05-06T02:40:25.766Z,101307.04
2019-05-06T02:42:55.616Z,101305.34
2019-05-06T02:45:25.596Z,101304.01
2019-05-06T02:48:14.002Z,101306.17
2019-05-06T02:50:43.478Z,101309.62
2019-05-06T02:53:13.784Z,101309.23
2019-05-06T02:55:43.317Z,101309.20
2019-05-06T02:58:14.835Z,101302.28
2019-05-06T03:00:44.184Z,101300.98
2019-05-06T03:03:14.323Z,101301.41
2019-05-06T03:05:44.275Z,101300.59
2019-05-06T03:08:13.962Z,101301.08
2019-05-06T03:10:44.525Z,101297.28
2019-05-06T03:13:14.618Z,101304.59
2019-05-06T03:15:44.231Z,101303.30
2019-05-06T03:18:15.100Z,101300.31
2019-05-06T03:20:54.537Z,101299.53
2019-05-06T03:23:25.727Z,101294.41
2019-05-06T03:25:55.323Z,101294.83
2019-05-06T03:28:25.003Z,101288.83
2019-05-06T03:30:56.781Z,101284.94
2019-05-06T03:33:47.685Z,101288.34
2019-05-06T03:36:06.958Z,101288.77
2019-05-06T03:38:28.400Z,101291.80
2019-05-06T03:40:57.965Z,101289.20
2019-05-06T03:43:27.488Z,101294.39
2019-05-06T03:45:59.162Z,101288.31
2019-05-06T03:48:33.181Z,101288.31
2019-05-06T03:51:04.023Z,101291.37
2019-05-06T03:53:35.725Z,101293.09
2019-05-06T03:56:05.980Z,101289.64
2019-05-06T03:58:38.157Z,101284.50
2019-05-06T04:01:07.764Z,101289.69
2019-05-06T04:03:46.889Z,101289.25
2019-05-06T04:06:08.915Z,101283.69
2019-05-06T04:08:38.930Z,101285.89
2019-05-06T04:11:10.343Z,101290.13
2019-05-06T04:13:40.110Z,101291.47
2019-05-06T04:16:17.377Z,101292.77
2019-05-06T04:18:53.820Z,101288.88
2019-05-06T04:21:24.827Z,101298.33
2019-05-06T04:24:05.041Z,101298.33
2019-05-06T04:26:34.900Z,101293.20
2019-05-06T04:29:04.831Z,101299.20
2019-05-06T04:31:34.965Z,101288.01
2019-05-06T04:34:13.470Z,101296.17
2019-05-06T04:36:36.338Z,101298.77
2019-05-06T04:39:07.196Z,101295.70
2019-05-06T04:41:37.097Z,101293.00
2019-05-06T04:44:06.684Z,101293.44
2019-05-06T04:46:36.268Z,101299.88
2019-05-06T04:49:10.352Z,101296.81
2019-05-06T04:51:37.470Z,101301.55
2019-05-06T04:54:07.087Z,101297.19
2019-05-06T04:56:36.618Z,101300.60
2019-05-06T04:59:06.693Z,101297.66
2019-05-06T05:01:36.545Z,101301.90
2019-05-06T05:04:22.730Z,101297.19
2019-05-06T05:06:37.932Z,101299.30
2019-05-06T05:09:07.528Z,101299.64
2019-05-06T05:11:38.783Z,101306.12
2019-05-06T05:14:15.715Z,101306.52
2019-05-06T05:17:02.358Z,101300.46
2019-05-06T05:19:32.835Z,101303.52
2019-05-06T05:22:08.913Z,101309.54
2019-05-06T05:24:38.864Z,101307.42
2019-05-06T05:27:08.740Z,101307.04
2019-05-06T05:29:38.405Z,101313.47
2019-05-06T05:32:07.923Z,101315.16
2019-05-06T05:34:40.678Z,101311.27
2019-05-06T05:37:09.021Z,101309.48
2019-05-06T05:39:38.728Z,101311.31
2019-05-06T05:42:19.158Z,101312.61
2019-05-06T05:44:52.258Z,101318.66
2019-05-06T05:47:22.150Z,101316.16
2019-05-06T05:50:02.982Z,101316.94
2019-05-06T05:52:32.961Z,101317.75
2019-05-06T05:55:03.981Z,101314.72
2019-05-06T05:57:33.973Z,101318.17
2019-05-06T06:00:04.312Z,101327.65
2019-05-06T06:02:34.101Z,101326.73
2019-05-06T06:05:04.347Z,101319.76
2019-05-06T06:07:34.477Z,101319.81
2019-05-06T06:10:07.455Z,101314.58
2019-05-06T06:12:37.421Z,101323.06
2019-05-06T06:15:08.459Z,101319.56
2019-05-06T06:17:40.240Z,101322.11
2019-05-06T06:20:27.968Z,101324.60
2019-05-06T06:22:59.148Z,101322.39
2019-05-06T06:25:28.694Z,101325.80
2019-05-06T06:27:58.732Z,101324.13
2019-05-06T06:30:48.018Z,101329.27
2019-05-06T06:33:17.640Z,101325.03
2019-05-06T06:35:58.608Z,101326.05
2019-05-06T06:38:45.873Z,101322.93
2019-05-06T06:41:15.886Z,101328.07
2019-05-06T06:43:47.242Z,101330.98
2019-05-06T06:46:17.460Z,101327.43
2019-05-06T06:48:46.990Z,101326.50
2019-05-06T06:51:16.538Z,101322.13
2019-05-06T06:53:46.076Z,101323.70
2019-05-06T06:56:21.876Z,101326.20
2019-05-06T06:59:04.571Z,101324.14
2019-05-06T07:01:36.199Z,101323.54
2019-05-06T07:04:11.216Z,101320.83
2019-05-06T07:06:43.725Z,101325.00
2019-05-06T07:09:13.388Z,101325.84
2019-05-06T07:11:43.005Z,101319.69
2019-05-06T07:14:13.741Z,101320.82
2019-05-06T07:16:43.519Z,101323.34
2019-05-06T07:19:14.699Z,101319.70
2019-05-06T07:21:54.772Z,101321.14
2019-05-06T07:24:24.348Z,101316.20
2019-05-06T07:26:55.693Z,101322.38
2019-05-06T07:29:26.723Z,101319.91
2019-05-06T07:31:56.692Z,101310.48
2019-05-06T07:34:26.332Z,101315.17
2019-05-06T07:36:55.963Z,101307.82
2019-05-06T07:39:25.498Z,101311.43
2019-05-06T07:41:56.687Z,101305.84
2019-05-06T07:44:44.208Z,101301.66
2019-05-06T07:47:15.745Z,101303.97
2019-05-06T07:49:45.422Z,101310.69
2019-05-06T07:52:17.158Z,101307.30
2019-05-06T07:54:46.227Z,101312.13
2019-05-06T07:57:15.808Z,101307.53
2019-05-06T07:59:45.597Z,101305.23
2019-05-06T08:02:15.114Z,101308.56
2019-05-06T08:04:44.684Z,101306.34
2019-05-06T08:07:14.228Z,101305.88
2019-05-06T08:09:44.031Z,101308.78
2019-05-06T08:12:13.608Z,101309.77
2019-05-06T08:14:43.469Z,101305.20
2019-05-06T08:17:17.116Z,101298.47
2019-05-06T08:19:46.992Z,101286.11
2019-05-06T08:22:24.117Z,101291.78
2019-05-06T08:24:53.673Z,101278.10
2019-05-06T08:27:23.223Z,101282.17
2019-05-06T08:29:52.895Z,101286.72
2019-05-06T08:32:22.894Z,101277.73
2019-05-06T08:34:52.546Z,101287.05
2019-05-06T08:37:23.773Z,101283.97
2019-05-06T08:39:53.535Z,101276.28
2019-05-06T08:42:23.144Z,101274.05
2019-05-06T08:44:53.114Z,101278.92
2019-05-06T08:47:22.912Z,101284.17
2019-05-06T08:49:56.843Z,101281.50
2019-05-06T08:52:28.027Z,101290.13
2019-05-06T08:55:04.257Z,101278.28
2019-05-06T08:57:32.521Z,101281.95
2019-05-06T09:00:03.481Z,101277.13
2019-05-06T09:02:33.212Z,101276.83
2019-05-06T09:05:03.153Z,101277.16
2019-05-06T09:07:32.679Z,101278.02
2019-05-06T09:10:02.630Z,101281.27
2019-05-06T09:12:32.932Z,101275.62
2019-05-06T09:15:03.532Z,101266.48
2019-05-06T09:17:33.299Z,101260.98
2019-05-06T09:20:02.848Z,101271.42
2019-05-06T09:22:32.731Z,101268.33
2019-05-06T09:25:02.550Z,101261.86
2019-05-06T09:27:46.717Z,101271.14
2019-05-06T09:30:23.004Z,101267.33
2019-05-06T09:32:52.618Z,101262.30
2019-05-06T09:35:22.514Z,101256.20
2019-05-06T09:37:53.445Z,101253.50
2019-05-06T09:40:23.079Z,101252.81
2019-05-06T09:42:52.648Z,101246.00
2019-05-06T09:45:22.805Z,101254.19
2019-05-06T09:47:54.093Z,101247.20
2019-05-06T09:50:45.465Z,101253.16
2019-05-06T09:53:30.346Z,101249.16
2019-05-06T09:56:03.321Z,101248.65
2019-05-06T09:58:35.540Z,101248.58
2019-05-06T10:01:05.792Z,101249.72
2019-05-06T10:03:35.344Z,101246.39
2019-05-06T10:06:04.884Z,101236.02
2019-05-06T10:08:34.708Z,101227.77
2019-05-06T10:11:04.295Z,101239.98
2019-05-06T10:13:33.875Z,101236.67
2019-05-06T10:16:03.434Z,101235.02
2019-05-06T10:18:33.056Z,101233.79
2019-05-06T10:21:02.690Z,101234.39
2019-05-06T10:23:32.748Z,101231.25
2019-05-06T10:26:04.587Z,101222.70
2019-05-06T10:28:35.506Z,101230.09
2019-05-06T10:31:07.721Z,101229.14
2019-05-06T10:33:39.007Z,101234.02
2019-05-06T10:36:08.796Z,101226.28
2019-05-06T10:39:05.591Z,101229.86
2019-05-06T10:41:39.334Z,101232.70
2019-05-06T10:44:37.792Z,101229.91
2019-05-06T10:47:07.430Z,101225.20
2019-05-06T10:49:37.312Z,101219.35
2019-05-06T10:52:14.293Z,101221.21
2019-05-06T10:54:43.942Z,101216.19
2019-05-06T10:57:18.015Z,101215.30
2019-05-06T10:59:47.547Z,101216.43
2019-05-06T11:02:18.743Z,101215.45
2019-05-06T11:04:48.287Z,101210.34
2019-05-06T11:07:31.079Z,101211.74
2019-05-06T11:09:49.390Z,101225.88
2019-05-06T11:12:19.012Z,101223.26
2019-05-06T11:14:48.615Z,101218.33
2019-05-06T11:17:18.210Z,101214.24
2019-05-06T11:19:47.799Z,101205.80
2019-05-06T11:22:21.065Z,101206.30
2019-05-06T11:24:48.630Z,101206.23
2019-05-06T11:27:28.870Z,101197.64
2019-05-06T11:29:53.051Z,101195.03
2019-05-06T11:32:24.089Z,101184.06
2019-05-06T11:34:55.310Z,101192.82
2019-05-06T11:37:49.792Z,101199.41
2019-05-06T11:40:16.531Z,101187.50
2019-05-06T11:42:44.498Z,101188.30
2019-05-06T11:45:14.561Z,101189.28
2019-05-06T11:47:44.150Z,101188.38
2019-05-06T11:50:14.297Z,101199.09
2019-05-06T11:52:43.935Z,101218.67
2019-05-06T11:55:27.570Z,101208.06
2019-05-06T11:57:46.873Z,101215.91
2019-05-06T12:00:18.684Z,101223.56
2019-05-06T12:02:49.071Z,101214.26
2019-05-06T12:05:18.877Z,101213.63
2019-05-06T12:08:01.826Z,101219.64
2019-05-06T12:10:19.775Z,101210.41
2019-05-06T12:12:49.317Z,101213.89
2019-05-06T12:15:19.144Z,101214.86
2019-05-06T12:17:48.731Z,101211.42
2019-05-06T12:20:18.614Z,101210.83
2019-05-06T12:22:48.176Z,101204.59
2019-05-06T12:25:17.929Z,101207.99
2019-05-06T12:27:47.492Z,101213.89
2019-05-06T12:30:23.017Z,101209.19
2019-05-06T12:32:58.468Z,101229.20
2019-05-06T12:35:28.160Z,101239.12
2019-05-06T12:37:59.338Z,101226.75
2019-05-06T12:40:28.954Z,101242.11
2019-05-06T12:43:16.410Z,101242.39
2019-05-06T12:45:53.009Z,101250.95
2019-05-06T12:48:23.651Z,101256.63
2019-05-06T12:50:53.222Z,101253.92
2019-05-06T12:53:23.266Z,101253.00
2019-05-06T12:55:53.062Z,101246.92
2019-05-06T12:58:23.372Z,101242.16
2019-05-06T13:00:54.237Z,101238.84
2019-05-06T13:03:24.151Z,101239.95
2019-05-06T13:05:53.747Z,101227.92
2019-05-06T13:08:28.769Z,101232.63
2019-05-06T13:10:54.899Z,101230.80
2019-05-06T13:13:24.421Z,101229.02
2019-05-06T13:15:53.962Z,101224.00
2019-05-06T13:18:23.706Z,101224.09
2019-05-06T13:20:53.473Z,101213.03
2019-05-06T13:23:35.086Z,101212.20
2019-05-06T13:26:05.151Z,101207.80
2019-05-06T13:28:38.137Z,101196.69
2019-05-06T13:31:19.417Z,101194.98
2019-05-06T13:33:47.703Z,101182.56
2019-05-06T13:36:18.019Z,101186.97
2019-05-06T13:38:48.639Z,101182.48
2019-05-06T13:41:18.392Z,101184.36
2019-05-06T13:43:50.617Z,101183.38
2019-05-06T13:46:27.401Z,101188.50
2019-05-06T13:49:02.815Z,101178.92
2019-05-06T13:51:34.064Z,101180.92
2019-05-06T13:54:03.813Z,101169.59
2019-05-06T13:56:33.534Z,101172.13
2019-05-06T13:59:05.120Z,101165.80
2019-05-06T14:01:36.101Z,101163.64
2019-05-06T14:04:05.831Z,101161.48
2019-05-06T14:06:35.375Z,101162.94
2019-05-06T14:09:27.192Z,101155.70
2019-05-06T14:11:42.015Z,101153.68
2019-05-06T14:14:12.576Z,101150.35
2019-05-06T14:16:42.782Z,101149.45
2019-05-06T14:19:15.555Z,101146.31
2019-05-06T14:21:45.122Z,101144.45
2019-05-06T14:24:17.394Z,101136.45
2019-05-06T14:26:46.164Z,101142.41
2019-05-06T14:29:17.484Z,101143.80
2019-05-06T14:31:48.651Z,101149.34
2019-05-06T14:34:18.233Z,101142.22
2019-05-06T14:36:47.852Z,101147.67
2019-05-06T14:39:19.006Z,101145.91
2019-05-06T14:41:50.219Z,101143.08
2019-05-06T14:44:19.774Z,101143.13
2019-05-06T14:47:07.082Z,101135.75
2019-05-06T14:49:36.745Z,101133.45
2019-05-06T14:52:06.457Z,101139.36
2019-05-06T14:54:38.710Z,101138.36
2019-05-06T14:57:12.602Z,101137.39
2019-05-06T14:59:42.382Z,101142.91
2019-05-06T15:02:13.315Z,101150.47
2019-05-06T15:04:43.699Z,101144.59
2019-05-06T15:07:13.731Z,101143.80
2019-05-06T15:09:55.829Z,101142.17
2019-05-06T15:12:15.049Z,101144.49
2019-05-06T15:14:44.685Z,101136.72
2019-05-06T15:17:16.797Z,101142.48
2019-05-06T15:19:46.361Z,101139.21
2019-05-06T15:22:15.936Z,101148.25
2019-05-06T15:24:46.764Z,101143.61
2019-05-06T15:27:16.325Z,101134.00
2019-05-06T15:29:48.849Z,101141.25
2019-05-06T15:32:23.171Z,101134.25
2019-05-06T15:34:56.183Z,101138.06
2019-05-06T15:37:45.816Z,101138.48
2019-05-06T15:40:30.742Z,101137.68
2019-05-06T15:42:48.135Z,101141.52
2019-05-06T15:45:18.294Z,101138.41
2019-05-06T15:47:47.875Z,101137.18
2019-05-06T15:50:17.765Z,101136.37
2019-05-06T15:52:47.312Z,101135.31
2019-05-06T15:55:18.051Z,101136.17
2019-05-06T15:57:47.628Z,101133.55
2019-05-06T16:00:22.596Z,101140.30
2019-05-06T16:02:53.016Z,101140.01
2019-05-06T16:05:26.545Z,101135.39
2019-05-06T16:07:54.633Z,101138.05
2019-05-06T16:10:24.362Z,101137.50
2019-05-06T16:12:54.878Z,101142.63
2019-05-06T16:15:25.069Z,101141.64
2019-05-06T16:17:54.923Z,101134.24
2019-05-06T16:20:24.540Z,101131.56
2019-05-06T16:23:07.773Z,101143.52
2019-05-06T16:25:37.421Z,101133.19
2019-05-06T16:28:06.993Z,101133.05
2019-05-06T16:30:36.629Z,101130.53
2019-05-06T16:33:06.231Z,101133.09
2019-05-06T16:35:35.898Z,101131.23
2019-05-06T16:38:05.673Z,101132.05
2019-05-06T16:40:35.258Z,101138.06
2019-05-06T16:43:04.802Z,101136.63
2019-05-06T16:45:34.381Z,101138.86
2019-05-06T16:48:03.957Z,101138.73
2019-05-06T16:50:35.038Z,101135.60
2019-05-06T16:53:04.574Z,101140.69
2019-05-06T16:55:54.973Z,101144.27
2019-05-06T16:58:27.782Z,101147.62
2019-05-06T17:00:57.597Z,101147.00
2019-05-06T17:03:28.852Z,101146.21
2019-05-06T17:06:18.208Z,101154.61
2019-05-06T17:08:47.892Z,101150.42
2019-05-06T17:11:27.984Z,101140.95
2019-05-06T17:13:49.107Z,101143.71
2019-05-06T17:16:19.216Z,101146.51
2019-05-06T17:18:48.771Z,101146.91
2019-05-06T17:21:18.545Z,101149.51
2019-05-06T17:23:48.126Z,101145.59
2019-05-06T17:26:17.759Z,101140.38
2019-05-06T17:28:54.861Z,101145.58
2019-05-06T17:31:26.819Z,101141.06
2019-05-06T17:34:06.801Z,101140.58
2019-05-06T17:36:38.030Z,101133.59
2019-05-06T17:39:13.261Z,101129.42
2019-05-06T17:41:48.539Z,101121.51
2019-05-06T17:44:14.262Z,101135.20
2019-05-06T17:46:45.773Z,101129.08
2019-05-06T17:49:23.615Z,101127.06
2019-05-06T17:52:10.105Z,101127.06
2019-05-06T17:54:39.709Z,101126.02
2019-05-06T17:57:09.356Z,101126.58
2019-05-06T17:59:39.089Z,101123.47
2019-05-06T18:02:11.541Z,101128.44
2019-05-06T18:04:43.102Z,101127.31
2019-05-06T18:07:12.989Z,101123.62
2019-05-06T18:09:42.844Z,101130.03
2019-05-06T18:12:12.611Z,101121.75
2019-05-06T18:14:43.544Z,101124.63
2019-05-06T18:17:13.540Z,101125.34
2019-05-06T18:19:43.527Z,101127.58
2019-05-06T18:22:13.318Z,101120.34
2019-05-06T18:24:42.844Z,101125.94
2019-05-06T18:27:13.579Z,101127.31
2019-05-06T18:29:43.111Z,101118.73
2019-05-06T18:32:12.811Z,101130.45
2019-05-06T18:34:42.360Z,101123.91
2019-05-06T18:37:12.698Z,101125.14
2019-05-06T18:39:42.763Z,101126.52
2019-05-06T18:42:19.136Z,101122.19
2019-05-06T18:44:43.877Z,101126.80
2019-05-06T18:47:13.442Z,101122.95
2019-05-06T18:49:42.995Z,101124.30
2019-05-06T18:52:13.416Z,101118.39
2019-05-06T18:54:43.435Z,101119.46
2019-05-06T18:57:14.020Z,101118.02
2019-05-06T18:59:43.756Z,101120.59
2019-05-06T19:02:13.561Z,101127.91
2019-05-06T19:04:53.569Z,101131.38
2019-05-06T19:07:23.127Z,101130.17
2019-05-06T19:09:54.327Z,101127.26
2019-05-06T19:12:31.686Z,101137.86
2019-05-06T19:14:55.201Z,101130.82
2019-05-06T19:17:24.753Z,101137.24
2019-05-06T19:19:54.295Z,101143.35
2019-05-06T19:22:24.187Z,101136.38
2019-05-06T19:24:53.753Z,101140.95
2019-05-06T19:27:24.983Z,101148.01
2019-05-06T19:29:54.868Z,101149.37
2019-05-06T19:32:25.430Z,101151.67
2019-05-06T19:34:54.990Z,101158.77
2019-05-06T19:37:24.543Z,101147.06
2019-05-06T19:39:54.063Z,101158.10
2019-05-06T19:42:23.695Z,101159.41
2019-05-06T19:44:53.283Z,101161.73
2019-05-06T19:47:22.923Z,101161.12
2019-05-06T19:49:53.345Z,101167.83
2019-05-06T19:52:25.011Z,101165.06
2019-05-06T19:54:54.303Z,101167.15
2019-05-06T19:57:23.857Z,101165.16
2019-05-06T19:59:53.566Z,101172.28
2019-05-06T20:02:25.659Z,101169.39
2019-05-06T20:04:57.046Z,101174.98
2019-05-06T20:07:30.423Z,101170.53
2019-05-06T20:10:08.288Z,101160.62
2019-05-06T20:12:47.614Z,101166.53
2019-05-06T20:15:35.216Z,101169.93
2019-05-06T20:18:06.020Z,101168.56
2019-05-06T20:20:36.458Z,101165.31
2019-05-06T20:23:07.329Z,101170.46
2019-05-06T20:25:37.501Z,101169.66
2019-05-06T20:28:07.660Z,101169.31
2019-05-06T20:30:37.967Z,101170.55
2019-05-06T20:33:08.927Z,101163.15
2019-05-06T20:35:38.626Z,101158.09
2019-05-06T20:38:09.033Z,101163.59
2019-05-06T20:40:39.275Z,101161.88
2019-05-06T20:43:19.314Z,101156.97
2019-05-06T20:45:42.530Z,101163.84
2019-05-06T20:48:13.040Z,101159.34
2019-05-06T20:50:43.214Z,101163.61
2019-05-06T20:53:13.657Z,101163.08
2019-05-06T20:55:44.382Z,101167.87
2019-05-06T20:58:14.477Z,101170.03
2019-05-06T21:00:44.708Z,101171.75
2019-05-06T21:03:15.463Z,101171.55
2019-05-06T21:05:45.441Z,101175.83
2019-05-06T21:08:16.486Z,101173.55
2019-05-06T21:10:49.734Z,101177.41
2019-05-06T21:13:29.562Z,101176.28
2019-05-06T21:15:50.417Z,101186.31
2019-05-06T21:18:20.207Z,101178.97
2019-05-06T21:20:50.378Z,101180.93
2019-05-06T21:23:22.692Z,101180.30
2019-05-06T21:25:52.664Z,101184.83
2019-05-06T21:28:23.740Z,101191.12
2019-05-06T21:30:53.673Z,101186.86
2019-05-06T21:33:23.507Z,101186.53
2019-05-06T21:35:54.663Z,101186.67
2019-05-06T21:38:24.602Z,101190.95
2019-05-06T21:40:54.295Z,101191.62
2019-05-06T21:43:24.401Z,101184.17
2019-05-06T21:45:54.276Z,101180.14
2019-05-06T21:48:24.135Z,101181.86
2019-05-06T21:50:54.401Z,101188.91
2019-05-06T21:53:24.465Z,101187.61
2019-05-06T21:55:54.827Z,101183.98
2019-05-06T21:58:25.304Z,101184.64
2019-05-06T22:00:57.279Z,101181.42
2019-05-06T22:03:27.034Z,101182.22
2019-05-06T22:05:56.577Z,101183.58
2019-05-06T22:08:26.352Z,101182.39
2019-05-06T22:11:00.092Z,101188.25
2019-05-06T22:13:28.840Z,101189.48
2019-05-06T22:16:02.305Z,101186.30
2019-05-06T22:18:31.641Z,101180.14
2019-05-06T22:21:03.063Z,101182.72
2019-05-06T22:23:52.586Z,101191.67
2019-05-06T22:26:23.463Z,101179.70
2019-05-06T22:28:53.926Z,101176.61
2019-05-06T22:31:24.669Z,101174.78
2019-05-06T22:33:54.741Z,101176.72
2019-05-06T22:36:24.640Z,101174.20
2019-05-06T22:38:54.196Z,101172.90
2019-05-06T22:41:25.484Z,101182.22
2019-05-06T22:43:55.212Z,101172.72
2019-05-06T22:46:24.970Z,101180.81
2019-05-06T22:48:54.870Z,101169.91
2019-05-06T22:51:24.824Z,101175.69
2019-05-06T22:53:54.372Z,101173.97
2019-05-06T22:56:24.044Z,101175.19
2019-05-06T22:58:53.604Z,101175.13
2019-05-06T23:01:43.087Z,101173.38
2019-05-06T23:04:14.054Z,101171.17
2019-05-06T23:06:43.606Z,101179.68
2019-05-06T23:09:13.136Z,101176.66
2019-05-06T23:11:42.758Z,101179.79
2019-05-06T23:14:16.741Z,101187.80
2019-05-06T23:16:43.618Z,101182.39
2019-05-06T23:19:13.182Z,101182.20
2019-05-06T23:21:43.170Z,101189.17
2019-05-06T23:24:13.267Z,101183.61
2019-05-06T23:26:42.873Z,101184.17
2019-05-06T23:29:13.032Z,101183.52
2019-05-06T23:31:43.217Z,101184.30
2019-05-06T23:34:12.797Z,101180.92
2019-05-06T23:37:02.801Z,101182.28
2019-05-06T23:40:29.323Z,101183.97
2019-05-06T23:43:53.752Z,101184.05
2019-05-06T23:47:18.315Z,101182.99
2019-05-06T23:50:42.922Z,101185.95
2019-05-06T23:54:07.207Z,101185.07
2019-05-06T23:56:45.719Z,101172.72
2019-05-06T23:59:17.879Z,101180.48
